createdAt,value
2018-12-02T00:05:50.818Z,5.17
2018-12-02T00:11:46.622Z,4.53
2018-12-02T00:17:40.110Z,4.44
2018-12-02T00:23:35.046Z,3.69
2018-12-02T00:29:30.095Z,4.46
2018-12-02T00:35:28.274Z,3.85
2018-12-02T00:41:21.309Z,4.62
2018-12-02T00:47:16.095Z,5.13
2018-12-02T00:53:11.148Z,4.06
2018-12-02T00:59:06.112Z,3.64
2018-12-02T01:05:01.014Z,4.59
2018-12-02T01:10:56.592Z,4.03
2018-12-02T01:16:51.274Z,4.57
2018-12-02T01:22:46.455Z,5.09
2018-12-02T01:28:40.065Z,5.33
2018-12-02T01:34:35.074Z,3.9
2018-12-02T01:40:31.241Z,4.59
2018-12-02T01:46:25.642Z,4.14
2018-12-02T01:52:20.778Z,5.02
2018-12-02T01:58:15.110Z,3.81
2018-12-02T02:04:10.094Z,5.44
2018-12-02T02:10:06.297Z,6.07
2018-12-02T02:16:00.122Z,5.66
2018-12-02T02:21:55.085Z,5.32
2018-12-02T02:27:50.102Z,8.85
2018-12-02T02:33:45.861Z,5.6
2018-12-02T02:39:40.137Z,4.89
2018-12-02T02:45:35.077Z,4.21
2018-12-02T02:51:30.116Z,5.58
2018-12-02T02:57:25.870Z,4.71
2018-12-02T03:03:20.802Z,4.38
2018-12-02T03:09:15.127Z,5.24
2018-12-02T03:15:10.144Z,4.58
2018-12-02T03:21:05.082Z,4.36
2018-12-02T03:27:00.174Z,4
2018-12-02T03:32:55.136Z,4.73
2018-12-02T03:38:50.771Z,4.72
2018-12-02T03:44:45.107Z,3.84
2018-12-02T03:50:40.104Z,4.07
2018-12-02T03:56:35.167Z,4.65
2018-12-02T04:02:30.842Z,4.01
2018-12-02T04:08:25.760Z,3.31
2018-12-02T04:14:20.871Z,3.5
2018-12-02T04:20:15.351Z,3.71
2018-12-02T04:26:10.096Z,4.07
2018-12-02T04:32:05.145Z,3.74
2018-12-02T04:38:00.111Z,3.58
2018-12-02T04:43:55.127Z,3.58
2018-12-02T04:49:50.801Z,3.09
2018-12-02T04:55:45.104Z,3.31
2018-12-02T05:01:40.839Z,3.3
2018-12-02T05:07:35.136Z,3.25
2018-12-02T05:13:31.328Z,3.53
2018-12-02T05:19:26.103Z,2.66
2018-12-02T05:25:20.289Z,2.88
2018-12-02T05:31:16.087Z,2.58
2018-12-02T05:37:11.351Z,3.15
2018-12-02T05:43:05.162Z,2.25
2018-12-02T05:49:00.107Z,2.9
2018-12-02T05:54:55.123Z,2.48
2018-12-02T06:00:50.144Z,2.58
2018-12-02T06:06:45.344Z,3.03
2018-12-02T06:12:41.319Z,2.47
2018-12-02T06:18:35.124Z,3
2018-12-02T06:24:30.120Z,4.02
2018-12-02T06:30:25.834Z,4.41
2018-12-02T06:36:21.306Z,4.96
2018-12-02T06:42:15.141Z,4.9
2018-12-02T06:48:10.159Z,3.99
2018-12-02T06:54:05.139Z,4.45
2018-12-02T07:00:00.162Z,3.6
2018-12-02T07:05:55.160Z,3.57
2018-12-02T07:11:50.168Z,3.96
2018-12-02T07:17:45.149Z,4.04
2018-12-02T07:23:41.162Z,4.53
2018-12-02T07:29:35.170Z,6.4
2018-12-02T07:35:30.200Z,7.86
2018-12-02T07:41:25.165Z,8.04
2018-12-02T07:47:20.190Z,7.88
2018-12-02T07:53:15.190Z,5.9
2018-12-02T07:59:10.197Z,13.07
2018-12-02T08:05:05.207Z,12.6
2018-12-02T08:11:00.182Z,15.37
2018-12-02T08:16:55.184Z,15.66
2018-12-02T08:22:51.430Z,17.81
2018-12-02T08:28:45.194Z,16.49
2018-12-02T08:34:40.172Z,15.88
2018-12-02T08:40:35.172Z,14.96
2018-12-02T08:46:30.190Z,17.46
2018-12-02T08:52:25.202Z,19.92
2018-12-02T08:58:20.187Z,15.48
2018-12-02T09:04:15.198Z,14.47
2018-12-02T09:10:10.172Z,16.97
2018-12-02T09:16:05.194Z,14.76
2018-12-02T09:22:00.182Z,15.98
2018-12-02T09:27:55.222Z,17.29
2018-12-02T09:33:50.167Z,15.99
2018-12-02T09:39:45.186Z,23
2018-12-02T09:51:35.197Z,22.2
2018-12-02T09:51:35.204Z,21.15
2018-12-02T09:57:30.197Z,18.23
2018-12-02T10:03:25.223Z,18.29
2018-12-02T10:09:20.234Z,19.9
2018-12-02T10:15:15.198Z,26.42
2018-12-02T10:21:10.182Z,25.8
2018-12-02T10:27:05.192Z,26.87
2018-12-02T10:33:00.864Z,20.07
2018-12-02T10:38:55.201Z,17.11
2018-12-02T10:44:50.247Z,16.21
2018-12-02T10:50:45.191Z,17.1
2018-12-02T10:56:40.225Z,17.12
2018-12-02T11:02:35.217Z,19.94
2018-12-02T11:08:30.214Z,19.47
2018-12-02T11:14:25.204Z,22.72
2018-12-02T11:20:20.202Z,21.28
2018-12-02T11:26:15.210Z,20.57
2018-12-02T11:32:10.218Z,21.89
2018-12-02T11:38:05.211Z,22.77
2018-12-02T11:44:00.210Z,21.28
2018-12-02T11:49:55.251Z,23.41
2018-12-02T11:55:50.228Z,24.34
2018-12-02T12:01:45.208Z,25.81
2018-12-02T12:07:40.202Z,24.28
2018-12-02T12:13:35.204Z,24.26
2018-12-02T12:19:30.228Z,27.07
2018-12-02T12:25:25.238Z,30.13
2018-12-02T12:31:20.248Z,28.42
2018-12-02T12:37:15.238Z,30.09
2018-12-02T12:43:10.224Z,29.04
2018-12-02T12:49:05.217Z,29.78
2018-12-02T12:55:00.207Z,34.14
2018-12-02T13:00:55.243Z,34.09
2018-12-02T13:06:50.241Z,27.41
2018-12-02T13:12:45.223Z,20.26
2018-12-02T13:18:40.385Z,20.02
2018-12-02T13:24:35.213Z,17.47
2018-12-02T13:30:30.228Z,18.34
2018-12-02T13:36:25.252Z,21.65
2018-12-02T13:42:20.228Z,23.62
2018-12-02T13:48:15.233Z,22.83
2018-12-02T13:54:10.260Z,24.1
2018-12-02T14:00:05.238Z,28.7
2018-12-02T14:06:00.272Z,29.54
2018-12-02T14:11:55.270Z,30.47
2018-12-02T14:17:50.265Z,32.76
2018-12-02T14:23:45.226Z,23.37
2018-12-02T14:29:40.255Z,20.74
2018-12-02T14:35:35.224Z,21.59
2018-12-02T14:41:30.261Z,20.39
2018-12-02T14:47:25.285Z,21.4
2018-12-02T14:53:20.232Z,20.86
2018-12-02T14:59:15.249Z,23.9
2018-12-02T15:05:10.237Z,22.99
2018-12-02T15:11:05.235Z,22.77
2018-12-02T15:17:00.305Z,20.81
2018-12-02T15:22:55.247Z,23.43
2018-12-02T15:28:50.251Z,24.34
2018-12-02T15:34:45.251Z,23.83
2018-12-02T15:40:40.253Z,26.25
2018-12-02T15:46:35.244Z,30.01
2018-12-02T15:52:30.241Z,28.89
2018-12-02T15:58:25.260Z,30
2018-12-02T16:04:20.242Z,28.57
2018-12-02T16:10:15.230Z,31.07
2018-12-02T16:16:10.267Z,32.31
2018-12-02T16:22:05.255Z,28.14
2018-12-02T16:28:00.946Z,27.33
2018-12-02T16:33:55.286Z,33.83
2018-12-02T16:39:50.359Z,27.95
2018-12-02T16:45:45.266Z,26.98
2018-12-02T16:51:40.260Z,26.11
2018-12-02T16:57:35.253Z,33.04
2018-12-02T17:03:30.246Z,30.83
2018-12-02T17:09:25.256Z,37.2
2018-12-02T17:15:20.299Z,30.89
2018-12-02T17:21:15.248Z,37.03
2018-12-02T17:27:10.342Z,43.95
2018-12-02T17:33:05.248Z,31.51
2018-12-02T17:39:00.253Z,31.76
2018-12-02T17:44:55.326Z,30.22
2018-12-02T17:50:50.261Z,31.32
2018-12-02T17:56:45.274Z,26.54
2018-12-02T18:02:40.302Z,27.43
2018-12-02T18:08:35.250Z,26.98
2018-12-02T18:14:30.267Z,35.38
2018-12-02T18:20:25.250Z,37.39
2018-12-02T18:26:20.240Z,42.05
2018-12-02T18:32:15.271Z,39.95
2018-12-02T18:38:10.341Z,40.3
2018-12-02T18:44:05.266Z,38.58
2018-12-02T18:50:00.270Z,35.71
2018-12-02T18:55:55.261Z,35.7
2018-12-02T19:01:50.281Z,35.86
2018-12-02T19:07:45.279Z,33.33
2018-12-02T19:13:43.485Z,33.73
2018-12-02T19:19:35.267Z,33.57
2018-12-02T19:25:30.297Z,40.1
2018-12-02T19:31:25.269Z,36.85
2018-12-02T19:37:20.306Z,38.68
2018-12-02T19:43:15.298Z,47.45
2018-12-02T19:49:10.299Z,39.83
2018-12-02T19:55:05.251Z,38.61
2018-12-02T20:01:00.295Z,39.49
2018-12-02T20:06:55.295Z,34.96
2018-12-02T20:12:50.268Z,40.83
2018-12-02T20:18:45.282Z,44.91
2018-12-02T20:24:40.301Z,43.14
2018-12-02T20:30:35.323Z,44.38
2018-12-02T20:36:30.330Z,40.6
2018-12-02T20:42:25.344Z,39.8
2018-12-02T20:48:20.279Z,38.53
2018-12-02T20:54:15.282Z,39.66
2018-12-02T21:00:10.293Z,40.11
2018-12-02T21:06:05.296Z,37.68
2018-12-02T21:12:00.328Z,39
2018-12-02T21:17:55.271Z,40.95
2018-12-02T21:23:50.266Z,41.43
2018-12-02T21:29:45.301Z,39.01
2018-12-02T21:35:40.282Z,37.62
2018-12-02T21:41:35.338Z,34.03
2018-12-02T21:47:30.280Z,29.52
2018-12-02T21:53:25.276Z,30.38
2018-12-02T21:59:20.306Z,28.88
2018-12-02T22:05:15.279Z,30
2018-12-02T22:11:10.284Z,26.63
2018-12-02T22:17:05.290Z,25.75
2018-12-02T22:23:00.293Z,29.49
2018-12-02T22:28:55.274Z,31.7
2018-12-02T22:34:50.292Z,28.38
2018-12-02T22:40:45.292Z,28.96
2018-12-02T22:46:40.277Z,25.03
2018-12-02T22:52:35.302Z,26.52
2018-12-02T22:58:30.288Z,21.33
2018-12-02T23:04:25.302Z,24.42
2018-12-02T23:10:20.280Z,19.19
2018-12-02T23:16:15.342Z,21.22
2018-12-02T23:22:10.290Z,20.6
2018-12-02T23:28:05.320Z,18.73
2018-12-02T23:34:00.281Z,18.17
2018-12-02T23:39:55.314Z,19.92
2018-12-02T23:45:50.351Z,19.12
2018-12-02T23:51:45.288Z,20.18
2018-12-02T23:57:40.281Z,21.11
